sensor_id;sensor_type;location;lat;lon;timestamp;P1;durP1;ratioP1;P2;durP2;ratioP2
13764;SDS011;6953;48.810;9.204;2022-08-21T00:00:37;0.40;;;0.40;;
13764;SDS011;6953;48.810;9.204;2022-08-21T00:03:04;0.40;;;0.40;;
13764;SDS011;6953;48.810;9.204;2022-08-21T00:05:32;0.50;;;0.50;;
13764;SDS011;6953;48.810;9.204;2022-08-21T00:08:00;0.50;;;0.50;;
13764;SDS011;6953;48.810;9.204;2022-08-21T00:10:26;0.40;;;0.40;;
13764;SDS011;6953;48.810;9.204;2022-08-21T00:12:52;0.60;;;0.60;;
13764;SDS011;6953;48.810;9.204;2022-08-21T00:15:19;0.50;;;0.50;;
13764;SDS011;6953;48.810;9.204;2022-08-21T00:17:47;0.40;;;0.40;;
13764;SDS011;6953;48.810;9.204;2022-08-21T00:20:14;0.50;;;0.50;;
13764;SDS011;6953;48.810;9.204;2022-08-21T00:22:41;0.40;;;0.40;;
13764;SDS011;6953;48.810;9.204;2022-08-21T00:25:07;0.50;;;0.50;;
13764;SDS011;6953;48.810;9.204;2022-08-21T00:27:33;0.47;;;0.47;;
13764;SDS011;6953;48.810;9.204;2022-08-21T00:29:58;0.40;;;0.40;;
13764;SDS011;6953;48.810;9.204;2022-08-21T00:32:25;0.35;;;0.35;;
13764;SDS011;6953;48.810;9.204;2022-08-21T00:34:52;0.50;;;0.50;;
13764;SDS011;6953;48.810;9.204;2022-08-21T00:37:18;0.50;;;0.50;;
13764;SDS011;6953;48.810;9.204;2022-08-21T00:39:44;0.50;;;0.50;;
13764;SDS011;6953;48.810;9.204;2022-08-21T00:42:10;0.50;;;0.50;;
13764;SDS011;6953;48.810;9.204;2022-08-21T00:44:40;0.50;;;0.50;;
13764;SDS011;6953;48.810;9.204;2022-08-21T00:47:09;0.45;;;0.45;;
13764;SDS011;6953;48.810;9.204;2022-08-21T00:49:35;0.50;;;0.50;;
13764;SDS011;6953;48.810;9.204;2022-08-21T00:52:01;0.50;;;0.50;;
13764;SDS011;6953;48.810;9.204;2022-08-21T00:54:30;0.40;;;0.40;;
13764;SDS011;6953;48.810;9.204;2022-08-21T00:56:58;0.40;;;0.40;;
13764;SDS011;6953;48.810;9.204;2022-08-21T00:59:26;0.40;;;0.40;;
13764;SDS011;6953;48.810;9.204;2022-08-21T01:01:54;0.40;;;0.40;;
13764;SDS011;6953;48.810;9.204;2022-08-21T01:04:20;0.40;;;0.40;;
13764;SDS011;6953;48.810;9.204;2022-08-21T01:06:45;0.50;;;0.50;;
13764;SDS011;6953;48.810;9.204;2022-08-21T01:09:12;0.30;;;0.30;;
13764;SDS011;6953;48.810;9.204;2022-08-21T01:11:39;0.50;;;0.50;;
13764;SDS011;6953;48.810;9.204;2022-08-21T01:14:04;0.40;;;0.40;;
13764;SDS011;6953;48.810;9.204;2022-08-21T01:16:30;0.50;;;0.50;;
13764;SDS011;6953;48.810;9.204;2022-08-21T01:18:56;0.50;;;0.50;;
13764;SDS011;6953;48.810;9.204;2022-08-21T01:21:22;0.60;;;0.60;;
13764;SDS011;6953;48.810;9.204;2022-08-21T01:23:50;0.50;;;0.50;;
13764;SDS011;6953;48.810;9.204;2022-08-21T01:26:18;0.50;;;0.50;;
13764;SDS011;6953;48.810;9.204;2022-08-21T01:31:48;0.57;;;0.57;;
13764;SDS011;6953;48.810;9.204;2022-08-21T01:34:14;0.40;;;0.40;;
13764;SDS011;6953;48.810;9.204;2022-08-21T01:36:41;0.50;;;0.50;;
13764;SDS011;6953;48.810;9.204;2022-08-21T01:39:07;0.50;;;0.50;;
13764;SDS011;6953;48.810;9.204;2022-08-21T01:41:32;0.50;;;0.50;;
13764;SDS011;6953;48.810;9.204;2022-08-21T01:43:58;0.40;;;0.40;;
13764;SDS011;6953;48.810;9.204;2022-08-21T01:46:23;0.50;;;0.50;;
13764;SDS011;6953;48.810;9.204;2022-08-21T01:48:49;0.50;;;0.50;;
13764;SDS011;6953;48.810;9.204;2022-08-21T01:51:14;0.45;;;0.45;;
13764;SDS011;6953;48.810;9.204;2022-08-21T01:53:40;0.45;;;0.45;;
13764;SDS011;6953;48.810;9.204;2022-08-21T01:56:06;0.47;;;0.47;;
13764;SDS011;6953;48.810;9.204;2022-08-21T01:58:35;0.40;;;0.40;;
13764;SDS011;6953;48.810;9.204;2022-08-21T02:01:01;0.50;;;0.50;;
13764;SDS011;6953;48.810;9.204;2022-08-21T02:03:28;0.40;;;0.40;;
13764;SDS011;6953;48.810;9.204;2022-08-21T02:05:54;0.50;;;0.50;;
13764;SDS011;6953;48.810;9.204;2022-08-21T02:08:19;0.38;;;0.38;;
13764;SDS011;6953;48.810;9.204;2022-08-21T02:10:48;0.40;;;0.40;;
13764;SDS011;6953;48.810;9.204;2022-08-21T02:13:14;0.50;;;0.50;;
13764;SDS011;6953;48.810;9.204;2022-08-21T02:15:40;0.40;;;0.40;;
13764;SDS011;6953;48.810;9.204;2022-08-21T02:18:05;0.40;;;0.40;;
13764;SDS011;6953;48.810;9.204;2022-08-21T02:20:36;0.40;;;0.40;;
13764;SDS011;6953;48.810;9.204;2022-08-21T02:23:04;0.40;;;0.40;;
13764;SDS011;6953;48.810;9.204;2022-08-21T02:25:31;0.30;;;0.30;;
13764;SDS011;6953;48.810;9.204;2022-08-21T02:27:57;0.30;;;0.30;;
13764;SDS011;6953;48.810;9.204;2022-08-21T02:30:25;0.38;;;0.38;;
13764;SDS011;6953;48.810;9.204;2022-08-21T02:32:53;0.45;;;0.45;;
13764;SDS011;6953;48.810;9.204;2022-08-21T02:35:20;0.30;;;0.30;;
13764;SDS011;6953;48.810;9.204;2022-08-21T02:38:05;0.30;;;0.30;;
13764;SDS011;6953;48.810;9.204;2022-08-21T02:40:34;0.30;;;0.30;;
13764;SDS011;6953;48.810;9.204;2022-08-21T02:43:02;0.40;;;0.40;;
13764;SDS011;6953;48.810;9.204;2022-08-21T02:45:29;0.40;;;0.40;;
13764;SDS011;6953;48.810;9.204;2022-08-21T02:47:58;0.50;;;0.50;;
13764;SDS011;6953;48.810;9.204;2022-08-21T02:50:30;0.50;;;0.50;;
13764;SDS011;6953;48.810;9.204;2022-08-21T02:53:03;0.50;;;0.50;;
13764;SDS011;6953;48.810;9.204;2022-08-21T02:55:31;0.50;;;0.50;;
13764;SDS011;6953;48.810;9.204;2022-08-21T02:57:57;0.40;;;0.40;;
13764;SDS011;6953;48.810;9.204;2022-08-21T03:00:24;0.30;;;0.30;;
13764;SDS011;6953;48.810;9.204;2022-08-21T03:02:53;0.50;;;0.50;;
13764;SDS011;6953;48.810;9.204;2022-08-21T03:05:19;0.40;;;0.40;;
13764;SDS011;6953;48.810;9.204;2022-08-21T03:07:45;0.40;;;0.40;;
13764;SDS011;6953;48.810;9.204;2022-08-21T03:10:12;0.40;;;0.40;;
13764;SDS011;6953;48.810;9.204;2022-08-21T03:12:38;0.40;;;0.40;;
13764;SDS011;6953;48.810;9.204;2022-08-21T03:15:04;0.40;;;0.40;;
13764;SDS011;6953;48.810;9.204;2022-08-21T03:17:32;0.50;;;0.50;;
13764;SDS011;6953;48.810;9.204;2022-08-21T03:19:58;0.40;;;0.40;;
13764;SDS011;6953;48.810;9.204;2022-08-21T03:22:23;0.20;;;0.20;;
13764;SDS011;6953;48.810;9.204;2022-08-21T03:24:49;0.30;;;0.30;;
13764;SDS011;6953;48.810;9.204;2022-08-21T03:27:14;0.30;;;0.30;;
13764;SDS011;6953;48.810;9.204;2022-08-21T03:29:40;0.30;;;0.30;;
13764;SDS011;6953;48.810;9.204;2022-08-21T03:32:05;0.20;;;0.20;;
13764;SDS011;6953;48.810;9.204;2022-08-21T03:34:34;0.30;;;0.30;;
13764;SDS011;6953;48.810;9.204;2022-08-21T03:37:00;0.20;;;0.20;;
13764;SDS011;6953;48.810;9.204;2022-08-21T03:39:25;0.20;;;0.20;;
13764;SDS011;6953;48.810;9.204;2022-08-21T03:41:50;0.20;;;0.20;;
13764;SDS011;6953;48.810;9.204;2022-08-21T03:44:17;0.20;;;0.20;;
13764;SDS011;6953;48.810;9.204;2022-08-21T03:46:42;0.20;;;0.20;;
13764;SDS011;6953;48.810;9.204;2022-08-21T03:49:08;0.20;;;0.20;;
13764;SDS011;6953;48.810;9.204;2022-08-21T03:51:33;0.30;;;0.30;;
13764;SDS011;6953;48.810;9.204;2022-08-21T03:54:00;0.20;;;0.20;;
13764;SDS011;6953;48.810;9.204;2022-08-21T03:56:25;0.20;;;0.20;;
13764;SDS011;6953;48.810;9.204;2022-08-21T03:58:51;0.20;;;0.20;;
13764;SDS011;6953;48.810;9.204;2022-08-21T04:01:16;0.30;;;0.30;;
13764;SDS011;6953;48.810;9.204;2022-08-21T04:03:41;0.30;;;0.30;;
13764;SDS011;6953;48.810;9.204;2022-08-21T04:06:07;0.20;;;0.20;;
13764;SDS011;6953;48.810;9.204;2022-08-21T04:08:33;0.20;;;0.20;;
13764;SDS011;6953;48.810;9.204;2022-08-21T04:10:59;0.20;;;0.20;;
13764;SDS011;6953;48.810;9.204;2022-08-21T04:13:24;0.20;;;0.20;;
13764;SDS011;6953;48.810;9.204;2022-08-21T04:15:53;0.30;;;0.30;;
13764;SDS011;6953;48.810;9.204;2022-08-21T04:18:19;0.30;;;0.30;;
13764;SDS011;6953;48.810;9.204;2022-08-21T04:20:45;0.30;;;0.30;;
13764;SDS011;6953;48.810;9.204;2022-08-21T04:23:13;0.20;;;0.20;;
13764;SDS011;6953;48.810;9.204;2022-08-21T04:25:38;0.30;;;0.30;;
13764;SDS011;6953;48.810;9.204;2022-08-21T04:28:04;0.30;;;0.30;;
13764;SDS011;6953;48.810;9.204;2022-08-21T04:30:29;0.30;;;0.30;;
13764;SDS011;6953;48.810;9.204;2022-08-21T04:32:55;0.30;;;0.30;;
13764;SDS011;6953;48.810;9.204;2022-08-21T04:35:22;0.20;;;0.20;;
13764;SDS011;6953;48.810;9.204;2022-08-21T04:37:48;0.30;;;0.30;;
13764;SDS011;6953;48.810;9.204;2022-08-21T04:40:15;0.20;;;0.20;;
13764;SDS011;6953;48.810;9.204;2022-08-21T04:42:43;0.30;;;0.30;;
13764;SDS011;6953;48.810;9.204;2022-08-21T04:45:17;0.20;;;0.20;;
13764;SDS011;6953;48.810;9.204;2022-08-21T04:47:54;0.30;;;0.30;;
13764;SDS011;6953;48.810;9.204;2022-08-21T04:50:22;0.30;;;0.30;;
13764;SDS011;6953;48.810;9.204;2022-08-21T04:52:51;0.20;;;0.20;;
13764;SDS011;6953;48.810;9.204;2022-08-21T04:55:17;0.20;;;0.20;;
13764;SDS011;6953;48.810;9.204;2022-08-21T04:57:43;0.30;;;0.30;;
13764;SDS011;6953;48.810;9.204;2022-08-21T05:00:09;0.20;;;0.20;;
13764;SDS011;6953;48.810;9.204;2022-08-21T05:02:37;0.22;;;0.22;;
13764;SDS011;6953;48.810;9.204;2022-08-21T05:05:04;0.22;;;0.22;;
13764;SDS011;6953;48.810;9.204;2022-08-21T05:07:30;0.30;;;0.30;;
13764;SDS011;6953;48.810;9.204;2022-08-21T05:09:56;0.20;;;0.20;;
13764;SDS011;6953;48.810;9.204;2022-08-21T05:12:23;0.20;;;0.20;;
13764;SDS011;6953;48.810;9.204;2022-08-21T05:14:49;0.20;;;0.20;;
13764;SDS011;6953;48.810;9.204;2022-08-21T05:17:15;0.30;;;0.30;;
13764;SDS011;6953;48.810;9.204;2022-08-21T05:19:40;0.30;;;0.30;;
13764;SDS011;6953;48.810;9.204;2022-08-21T05:22:06;0.20;;;0.20;;
13764;SDS011;6953;48.810;9.204;2022-08-21T05:24:31;0.30;;;0.30;;
13764;SDS011;6953;48.810;9.204;2022-08-21T05:26:57;0.20;;;0.20;;
13764;SDS011;6953;48.810;9.204;2022-08-21T05:29:23;0.20;;;0.20;;
13764;SDS011;6953;48.810;9.204;2022-08-21T05:31:49;0.20;;;0.20;;
13764;SDS011;6953;48.810;9.204;2022-08-21T05:34:17;0.22;;;0.22;;
13764;SDS011;6953;48.810;9.204;2022-08-21T05:36:44;0.20;;;0.20;;
13764;SDS011;6953;48.810;9.204;2022-08-21T05:39:09;0.20;;;0.20;;
13764;SDS011;6953;48.810;9.204;2022-08-21T05:41:35;0.20;;;0.20;;
13764;SDS011;6953;48.810;9.204;2022-08-21T05:44:00;0.20;;;0.20;;
13764;SDS011;6953;48.810;9.204;2022-08-21T05:46:25;0.10;;;0.10;;
13764;SDS011;6953;48.810;9.204;2022-08-21T05:48:51;0.10;;;0.10;;
13764;SDS011;6953;48.810;9.204;2022-08-21T05:51:16;0.20;;;0.20;;
13764;SDS011;6953;48.810;9.204;2022-08-21T05:53:42;0.10;;;0.10;;
13764;SDS011;6953;48.810;9.204;2022-08-21T05:56:09;0.10;;;0.10;;
13764;SDS011;6953;48.810;9.204;2022-08-21T05:58:35;0.10;;;0.10;;
13764;SDS011;6953;48.810;9.204;2022-08-21T06:01:02;0.10;;;0.10;;
13764;SDS011;6953;48.810;9.204;2022-08-21T06:03:29;0.03;;;0.03;;
13764;SDS011;6953;48.810;9.204;2022-08-21T06:05:59;0.00;;;0.00;;
13764;SDS011;6953;48.810;9.204;2022-08-21T06:08:26;0.10;;;0.10;;
13764;SDS011;6953;48.810;9.204;2022-08-21T06:10:52;0.10;;;0.10;;
13764;SDS011;6953;48.810;9.204;2022-08-21T06:13:19;0.10;;;0.10;;
13764;SDS011;6953;48.810;9.204;2022-08-21T06:15:46;0.10;;;0.10;;
13764;SDS011;6953;48.810;9.204;2022-08-21T06:18:12;0.10;;;0.10;;
13764;SDS011;6953;48.810;9.204;2022-08-21T06:20:38;0.10;;;0.10;;
13764;SDS011;6953;48.810;9.204;2022-08-21T06:23:03;0.13;;;0.13;;
13764;SDS011;6953;48.810;9.204;2022-08-21T06:25:29;0.20;;;0.20;;
13764;SDS011;6953;48.810;9.204;2022-08-21T06:28:06;0.10;;;0.10;;
13764;SDS011;6953;48.810;9.204;2022-08-21T06:30:34;0.10;;;0.10;;
13764;SDS011;6953;48.810;9.204;2022-08-21T06:33:01;0.10;;;0.10;;
13764;SDS011;6953;48.810;9.204;2022-08-21T06:35:27;0.00;;;0.00;;
13764;SDS011;6953;48.810;9.204;2022-08-21T06:37:54;0.10;;;0.10;;
13764;SDS011;6953;48.810;9.204;2022-08-21T06:40:19;0.08;;;0.08;;
13764;SDS011;6953;48.810;9.204;2022-08-21T06:42:44;0.10;;;0.10;;
13764;SDS011;6953;48.810;9.204;2022-08-21T06:45:10;0.10;;;0.10;;
13764;SDS011;6953;48.810;9.204;2022-08-21T06:47:35;0.00;;;0.00;;
13764;SDS011;6953;48.810;9.204;2022-08-21T06:50:01;0.00;;;0.00;;
13764;SDS011;6953;48.810;9.204;2022-08-21T06:52:26;0.00;;;0.00;;
13764;SDS011;6953;48.810;9.204;2022-08-21T06:54:51;0.00;;;0.00;;
13764;SDS011;6953;48.810;9.204;2022-08-21T06:57:17;0.00;;;0.00;;
13764;SDS011;6953;48.810;9.204;2022-08-21T06:59:42;0.00;;;0.00;;
13764;SDS011;6953;48.810;9.204;2022-08-21T07:02:07;0.00;;;0.00;;
13764;SDS011;6953;48.810;9.204;2022-08-21T07:04:33;0.00;;;0.00;;
13764;SDS011;6953;48.810;9.204;2022-08-21T07:06:58;0.00;;;0.00;;
13764;SDS011;6953;48.810;9.204;2022-08-21T07:09:24;0.00;;;0.00;;
13764;SDS011;6953;48.810;9.204;2022-08-21T07:11:50;0.00;;;0.00;;
13764;SDS011;6953;48.810;9.204;2022-08-21T07:14:18;0.00;;;0.00;;
13764;SDS011;6953;48.810;9.204;2022-08-21T07:16:43;0.00;;;0.00;;
13764;SDS011;6953;48.810;9.204;2022-08-21T07:19:09;0.00;;;0.00;;
13764;SDS011;6953;48.810;9.204;2022-08-21T07:21:34;0.00;;;0.00;;
13764;SDS011;6953;48.810;9.204;2022-08-21T07:23:59;0.03;;;0.03;;
13764;SDS011;6953;48.810;9.204;2022-08-21T07:26:25;0.00;;;0.00;;
13764;SDS011;6953;48.810;9.204;2022-08-21T07:28:51;0.00;;;0.00;;
13764;SDS011;6953;48.810;9.204;2022-08-21T07:31:17;0.00;;;0.00;;
13764;SDS011;6953;48.810;9.204;2022-08-21T07:33:44;0.00;;;0.00;;
13764;SDS011;6953;48.810;9.204;2022-08-21T07:36:10;0.00;;;0.00;;
13764;SDS011;6953;48.810;9.204;2022-08-21T07:38:36;0.00;;;0.00;;
13764;SDS011;6953;48.810;9.204;2022-08-21T07:41:02;0.00;;;0.00;;
13764;SDS011;6953;48.810;9.204;2022-08-21T07:43:31;0.00;;;0.00;;
13764;SDS011;6953;48.810;9.204;2022-08-21T07:45:57;0.00;;;0.00;;
13764;SDS011;6953;48.810;9.204;2022-08-21T07:48:22;0.00;;;0.00;;
13764;SDS011;6953;48.810;9.204;2022-08-21T07:50:48;0.00;;;0.00;;
13764;SDS011;6953;48.810;9.204;2022-08-21T07:53:14;0.00;;;0.00;;
13764;SDS011;6953;48.810;9.204;2022-08-21T07:55:40;0.00;;;0.00;;
13764;SDS011;6953;48.810;9.204;2022-08-21T07:58:05;0.00;;;0.00;;
13764;SDS011;6953;48.810;9.204;2022-08-21T08:00:31;0.00;;;0.00;;
13764;SDS011;6953;48.810;9.204;2022-08-21T08:02:57;0.00;;;0.00;;
13764;SDS011;6953;48.810;9.204;2022-08-21T08:05:24;0.00;;;0.00;;
13764;SDS011;6953;48.810;9.204;2022-08-21T08:07:51;0.00;;;0.00;;
13764;SDS011;6953;48.810;9.204;2022-08-21T08:10:17;0.00;;;0.00;;
13764;SDS011;6953;48.810;9.204;2022-08-21T08:12:43;0.00;;;0.00;;
13764;SDS011;6953;48.810;9.204;2022-08-21T08:15:12;0.00;;;0.00;;
13764;SDS011;6953;48.810;9.204;2022-08-21T08:17:40;0.08;;;0.08;;
13764;SDS011;6953;48.810;9.204;2022-08-21T08:20:06;0.00;;;0.00;;
13764;SDS011;6953;48.810;9.204;2022-08-21T08:22:37;0.00;;;0.00;;
13764;SDS011;6953;48.810;9.204;2022-08-21T08:25:04;0.00;;;0.00;;
13764;SDS011;6953;48.810;9.204;2022-08-21T08:27:30;0.00;;;0.00;;
13764;SDS011;6953;48.810;9.204;2022-08-21T08:29:56;0.00;;;0.00;;
13764;SDS011;6953;48.810;9.204;2022-08-21T08:32:21;0.00;;;0.00;;
13764;SDS011;6953;48.810;9.204;2022-08-21T08:34:47;0.00;;;0.00;;
13764;SDS011;6953;48.810;9.204;2022-08-21T08:37:14;0.10;;;0.10;;
13764;SDS011;6953;48.810;9.204;2022-08-21T08:39:39;0.00;;;0.00;;
13764;SDS011;6953;48.810;9.204;2022-08-21T08:42:12;0.00;;;0.00;;
13764;SDS011;6953;48.810;9.204;2022-08-21T08:44:43;0.00;;;0.00;;
13764;SDS011;6953;48.810;9.204;2022-08-21T08:47:11;0.00;;;0.00;;
13764;SDS011;6953;48.810;9.204;2022-08-21T08:49:53;0.08;;;0.08;;
13764;SDS011;6953;48.810;9.204;2022-08-21T08:52:22;0.00;;;0.00;;
13764;SDS011;6953;48.810;9.204;2022-08-21T08:57:31;0.08;;;0.08;;
13764;SDS011;6953;48.810;9.204;2022-08-21T08:59:58;0.00;;;0.00;;
13764;SDS011;6953;48.810;9.204;2022-08-21T09:02:25;0.05;;;0.05;;
13764;SDS011;6953;48.810;9.204;2022-08-21T09:04:52;0.00;;;0.00;;
13764;SDS011;6953;48.810;9.204;2022-08-21T09:15:28;0.00;;;0.00;;
13764;SDS011;6953;48.810;9.204;2022-08-21T09:23:29;0.00;;;0.00;;
13764;SDS011;6953;48.810;9.204;2022-08-21T09:26:18;0.00;;;0.00;;
13764;SDS011;6953;48.810;9.204;2022-08-21T09:28:45;0.00;;;0.00;;
13764;SDS011;6953;48.810;9.204;2022-08-21T09:31:33;0.00;;;0.00;;
13764;SDS011;6953;48.810;9.204;2022-08-21T09:34:04;0.00;;;0.00;;
13764;SDS011;6953;48.810;9.204;2022-08-21T09:39:07;0.00;;;0.00;;
13764;SDS011;6953;48.810;9.204;2022-08-21T09:41:34;0.00;;;0.00;;
13764;SDS011;6953;48.810;9.204;2022-08-21T09:44:00;0.00;;;0.00;;
13764;SDS011;6953;48.810;9.204;2022-08-21T09:46:26;0.00;;;0.00;;
13764;SDS011;6953;48.810;9.204;2022-08-21T09:48:54;0.10;;;0.10;;
13764;SDS011;6953;48.810;9.204;2022-08-21T09:51:22;0.00;;;0.00;;
13764;SDS011;6953;48.810;9.204;2022-08-21T09:53:56;0.00;;;0.00;;
13764;SDS011;6953;48.810;9.204;2022-08-21T09:56:53;0.00;;;0.00;;
13764;SDS011;6953;48.810;9.204;2022-08-21T09:59:40;0.00;;;0.00;;
13764;SDS011;6953;48.810;9.204;2022-08-21T10:05:20;0.00;;;0.00;;
13764;SDS011;6953;48.810;9.204;2022-08-21T10:07:50;0.00;;;0.00;;
13764;SDS011;6953;48.810;9.204;2022-08-21T10:10:18;0.00;;;0.00;;
13764;SDS011;6953;48.810;9.204;2022-08-21T10:15:41;0.00;;;0.00;;
13764;SDS011;6953;48.810;9.204;2022-08-21T10:18:15;0.00;;;0.00;;
13764;SDS011;6953;48.810;9.204;2022-08-21T10:20:49;0.00;;;0.00;;
13764;SDS011;6953;48.810;9.204;2022-08-21T10:23:38;0.00;;;0.00;;
13764;SDS011;6953;48.810;9.204;2022-08-21T10:26:11;0.00;;;0.00;;
13764;SDS011;6953;48.810;9.204;2022-08-21T10:42:38;0.00;;;0.00;;
13764;SDS011;6953;48.810;9.204;2022-08-21T10:48:08;0.00;;;0.00;;
13764;SDS011;6953;48.810;9.204;2022-08-21T10:50:48;0.00;;;0.00;;
13764;SDS011;6953;48.810;9.204;2022-08-21T10:56:01;0.00;;;0.00;;
13764;SDS011;6953;48.810;9.204;2022-08-21T10:58:37;0.00;;;0.00;;
13764;SDS011;6953;48.810;9.204;2022-08-21T11:01:15;0.00;;;0.00;;
13764;SDS011;6953;48.810;9.204;2022-08-21T11:03:46;0.00;;;0.00;;
13764;SDS011;6953;48.810;9.204;2022-08-21T11:06:23;0.00;;;0.00;;
13764;SDS011;6953;48.810;9.204;2022-08-21T11:08:56;0.00;;;0.00;;
13764;SDS011;6953;48.810;9.204;2022-08-21T11:11:29;0.00;;;0.00;;
13764;SDS011;6953;48.810;9.204;2022-08-21T11:16:51;0.00;;;0.00;;
13764;SDS011;6953;48.810;9.204;2022-08-21T11:19:28;0.00;;;0.00;;
13764;SDS011;6953;48.810;9.204;2022-08-21T11:22:21;0.00;;;0.00;;
13764;SDS011;6953;48.810;9.204;2022-08-21T11:28:22;0.00;;;0.00;;
13764;SDS011;6953;48.810;9.204;2022-08-21T11:31:13;0.00;;;0.00;;
13764;SDS011;6953;48.810;9.204;2022-08-21T11:34:03;0.00;;;0.00;;
13764;SDS011;6953;48.810;9.204;2022-08-21T11:36:48;0.03;;;0.03;;
13764;SDS011;6953;48.810;9.204;2022-08-21T11:44:46;0.00;;;0.00;;
13764;SDS011;6953;48.810;9.204;2022-08-21T11:47:22;0.00;;;0.00;;
13764;SDS011;6953;48.810;9.204;2022-08-21T11:52:33;0.00;;;0.00;;
13764;SDS011;6953;48.810;9.204;2022-08-21T11:55:23;0.00;;;0.00;;
13764;SDS011;6953;48.810;9.204;2022-08-21T11:58:14;0.00;;;0.00;;
13764;SDS011;6953;48.810;9.204;2022-08-21T12:03:14;0.00;;;0.00;;
13764;SDS011;6953;48.810;9.204;2022-08-21T12:05:58;0.00;;;0.00;;
13764;SDS011;6953;48.810;9.204;2022-08-21T12:08:28;0.00;;;0.00;;
13764;SDS011;6953;48.810;9.204;2022-08-21T12:11:01;0.00;;;0.00;;
13764;SDS011;6953;48.810;9.204;2022-08-21T12:16:35;0.00;;;0.00;;
13764;SDS011;6953;48.810;9.204;2022-08-21T12:19:06;0.00;;;0.00;;
13764;SDS011;6953;48.810;9.204;2022-08-21T12:21:52;0.00;;;0.00;;
13764;SDS011;6953;48.810;9.204;2022-08-21T12:24:41;0.00;;;0.00;;
13764;SDS011;6953;48.810;9.204;2022-08-21T12:29:59;0.00;;;0.00;;
13764;SDS011;6953;48.810;9.204;2022-08-21T12:33:18;0.00;;;0.00;;
13764;SDS011;6953;48.810;9.204;2022-08-21T12:35:27;0.00;;;0.00;;
13764;SDS011;6953;48.810;9.204;2022-08-21T12:38:07;0.00;;;0.00;;
13764;SDS011;6953;48.810;9.204;2022-08-21T12:40:43;0.00;;;0.00;;
13764;SDS011;6953;48.810;9.204;2022-08-21T12:43:15;0.00;;;0.00;;
13764;SDS011;6953;48.810;9.204;2022-08-21T12:45:46;0.00;;;0.00;;
13764;SDS011;6953;48.810;9.204;2022-08-21T12:48:19;0.00;;;0.00;;
13764;SDS011;6953;48.810;9.204;2022-08-21T12:51:22;0.00;;;0.00;;
13764;SDS011;6953;48.810;9.204;2022-08-21T12:53:47;0.00;;;0.00;;
13764;SDS011;6953;48.810;9.204;2022-08-21T12:56:22;0.00;;;0.00;;
13764;SDS011;6953;48.810;9.204;2022-08-21T12:58:57;0.00;;;0.00;;
13764;SDS011;6953;48.810;9.204;2022-08-21T13:01:35;0.10;;;0.10;;
13764;SDS011;6953;48.810;9.204;2022-08-21T13:04:06;0.00;;;0.00;;
13764;SDS011;6953;48.810;9.204;2022-08-21T13:06:40;0.00;;;0.00;;
13764;SDS011;6953;48.810;9.204;2022-08-21T13:09:09;0.03;;;0.03;;
13764;SDS011;6953;48.810;9.204;2022-08-21T13:11:39;0.10;;;0.10;;
13764;SDS011;6953;48.810;9.204;2022-08-21T13:14:06;0.10;;;0.10;;
13764;SDS011;6953;48.810;9.204;2022-08-21T13:16:56;0.00;;;0.00;;
13764;SDS011;6953;48.810;9.204;2022-08-21T13:19:23;0.00;;;0.00;;
13764;SDS011;6953;48.810;9.204;2022-08-21T13:21:49;0.00;;;0.00;;
13764;SDS011;6953;48.810;9.204;2022-08-21T13:26:45;0.00;;;0.00;;
13764;SDS011;6953;48.810;9.204;2022-08-21T13:29:14;0.00;;;0.00;;
13764;SDS011;6953;48.810;9.204;2022-08-21T13:32:03;0.00;;;0.00;;
13764;SDS011;6953;48.810;9.204;2022-08-21T13:34:30;0.00;;;0.00;;
13764;SDS011;6953;48.810;9.204;2022-08-21T13:36:59;0.00;;;0.00;;
13764;SDS011;6953;48.810;9.204;2022-08-21T13:39:27;0.00;;;0.00;;
13764;SDS011;6953;48.810;9.204;2022-08-21T13:41:56;0.00;;;0.00;;
13764;SDS011;6953;48.810;9.204;2022-08-21T13:46:55;0.00;;;0.00;;
13764;SDS011;6953;48.810;9.204;2022-08-21T13:49:32;0.00;;;0.00;;
13764;SDS011;6953;48.810;9.204;2022-08-21T13:52:01;0.00;;;0.00;;
13764;SDS011;6953;48.810;9.204;2022-08-21T13:54:35;0.00;;;0.00;;
13764;SDS011;6953;48.810;9.204;2022-08-21T13:57:15;0.00;;;0.00;;
13764;SDS011;6953;48.810;9.204;2022-08-21T13:59:43;0.00;;;0.00;;
13764;SDS011;6953;48.810;9.204;2022-08-21T14:02:16;0.03;;;0.03;;
13764;SDS011;6953;48.810;9.204;2022-08-21T14:04:55;0.00;;;0.00;;
13764;SDS011;6953;48.810;9.204;2022-08-21T14:07:34;0.00;;;0.00;;
13764;SDS011;6953;48.810;9.204;2022-08-21T14:10:15;0.00;;;0.00;;
13764;SDS011;6953;48.810;9.204;2022-08-21T14:12:46;0.00;;;0.00;;
13764;SDS011;6953;48.810;9.204;2022-08-21T14:15:14;0.00;;;0.00;;
13764;SDS011;6953;48.810;9.204;2022-08-21T14:17:42;0.00;;;0.00;;
13764;SDS011;6953;48.810;9.204;2022-08-21T14:20:10;0.00;;;0.00;;
13764;SDS011;6953;48.810;9.204;2022-08-21T14:27:48;0.00;;;0.00;;
13764;SDS011;6953;48.810;9.204;2022-08-21T14:30:22;0.00;;;0.00;;
13764;SDS011;6953;48.810;9.204;2022-08-21T14:32:54;0.08;;;0.08;;
13764;SDS011;6953;48.810;9.204;2022-08-21T14:35:19;0.10;;;0.10;;
13764;SDS011;6953;48.810;9.204;2022-08-21T14:37:46;0.00;;;0.00;;
13764;SDS011;6953;48.810;9.204;2022-08-21T14:40:13;0.00;;;0.00;;
13764;SDS011;6953;48.810;9.204;2022-08-21T14:42:40;0.10;;;0.10;;
13764;SDS011;6953;48.810;9.204;2022-08-21T14:45:13;0.10;;;0.10;;
13764;SDS011;6953;48.810;9.204;2022-08-21T14:47:41;0.10;;;0.10;;
13764;SDS011;6953;48.810;9.204;2022-08-21T14:50:07;0.10;;;0.10;;
13764;SDS011;6953;48.810;9.204;2022-08-21T14:52:33;0.00;;;0.00;;
13764;SDS011;6953;48.810;9.204;2022-08-21T14:54:59;0.10;;;0.10;;
13764;SDS011;6953;48.810;9.204;2022-08-21T14:57:24;0.10;;;0.10;;
13764;SDS011;6953;48.810;9.204;2022-08-21T14:59:52;0.10;;;0.10;;
13764;SDS011;6953;48.810;9.204;2022-08-21T15:02:17;0.10;;;0.10;;
13764;SDS011;6953;48.810;9.204;2022-08-21T15:04:43;0.10;;;0.10;;
13764;SDS011;6953;48.810;9.204;2022-08-21T15:07:08;0.10;;;0.10;;
13764;SDS011;6953;48.810;9.204;2022-08-21T15:09:33;0.10;;;0.10;;
13764;SDS011;6953;48.810;9.204;2022-08-21T15:11:59;0.10;;;0.10;;
13764;SDS011;6953;48.810;9.204;2022-08-21T15:14:27;0.10;;;0.10;;
13764;SDS011;6953;48.810;9.204;2022-08-21T15:16:54;0.10;;;0.10;;
13764;SDS011;6953;48.810;9.204;2022-08-21T15:19:20;0.10;;;0.10;;
13764;SDS011;6953;48.810;9.204;2022-08-21T15:21:46;0.10;;;0.10;;
13764;SDS011;6953;48.810;9.204;2022-08-21T15:24:11;0.10;;;0.10;;
13764;SDS011;6953;48.810;9.204;2022-08-21T15:26:37;0.10;;;0.10;;
13764;SDS011;6953;48.810;9.204;2022-08-21T15:29:02;0.10;;;0.10;;
13764;SDS011;6953;48.810;9.204;2022-08-21T15:31:30;0.10;;;0.10;;
13764;SDS011;6953;48.810;9.204;2022-08-21T15:33:56;0.10;;;0.10;;
13764;SDS011;6953;48.810;9.204;2022-08-21T15:36:21;0.10;;;0.10;;
13764;SDS011;6953;48.810;9.204;2022-08-21T15:38:47;0.10;;;0.10;;
13764;SDS011;6953;48.810;9.204;2022-08-21T15:41:12;0.10;;;0.10;;
13764;SDS011;6953;48.810;9.204;2022-08-21T15:43:45;0.10;;;0.10;;
13764;SDS011;6953;48.810;9.204;2022-08-21T15:46:14;0.20;;;0.20;;
13764;SDS011;6953;48.810;9.204;2022-08-21T15:48:41;0.10;;;0.10;;
13764;SDS011;6953;48.810;9.204;2022-08-21T15:51:08;0.10;;;0.10;;
13764;SDS011;6953;48.810;9.204;2022-08-21T15:53:35;0.10;;;0.10;;
13764;SDS011;6953;48.810;9.204;2022-08-21T15:56:04;0.20;;;0.20;;
13764;SDS011;6953;48.810;9.204;2022-08-21T15:58:30;0.20;;;0.20;;
13764;SDS011;6953;48.810;9.204;2022-08-21T16:01:00;0.13;;;0.13;;
13764;SDS011;6953;48.810;9.204;2022-08-21T16:03:26;0.10;;;0.10;;
13764;SDS011;6953;48.810;9.204;2022-08-21T16:05:52;0.10;;;0.10;;
13764;SDS011;6953;48.810;9.204;2022-08-21T16:08:21;0.20;;;0.20;;
13764;SDS011;6953;48.810;9.204;2022-08-21T16:10:47;0.20;;;0.20;;
13764;SDS011;6953;48.810;9.204;2022-08-21T16:13:25;0.10;;;0.10;;
13764;SDS011;6953;48.810;9.204;2022-08-21T16:15:53;0.10;;;0.10;;
13764;SDS011;6953;48.810;9.204;2022-08-21T16:18:19;0.20;;;0.20;;
13764;SDS011;6953;48.810;9.204;2022-08-21T16:20:47;0.10;;;0.10;;
13764;SDS011;6953;48.810;9.204;2022-08-21T16:23:13;0.10;;;0.10;;
13764;SDS011;6953;48.810;9.204;2022-08-21T16:25:39;0.20;;;0.20;;
13764;SDS011;6953;48.810;9.204;2022-08-21T16:28:06;0.10;;;0.10;;
13764;SDS011;6953;48.810;9.204;2022-08-21T16:30:35;0.15;;;0.15;;